sensor_id;sensor_type;location;lat;lon;timestamp;temperature;humidity
12166;DHT22;6146;48.128;11.476;2023-01-30T00:01:28;-3.00;99.90
12166;DHT22;6146;48.128;11.476;2023-01-30T00:03:54;-3.10;99.90
12166;DHT22;6146;48.128;11.476;2023-01-30T00:06:20;-3.10;99.90
12166;DHT22;6146;48.128;11.476;2023-01-30T00:08:46;-3.10;99.90
12166;DHT22;6146;48.128;11.476;2023-01-30T00:11:13;-3.10;99.90
12166;DHT22;6146;48.128;11.476;2023-01-30T00:13:39;-3.10;99.90
12166;DHT22;6146;48.128;11.476;2023-01-30T00:16:05;-3.10;99.90
12166;DHT22;6146;48.128;11.476;2023-01-30T00:18:31;-3.10;99.90
12166;DHT22;6146;48.128;11.476;2023-01-30T00:20:58;-3.10;99.90
12166;DHT22;6146;48.128;11.476;2023-01-30T00:23:25;-3.10;99.90
12166;DHT22;6146;48.128;11.476;2023-01-30T00:25:51;-3.10;99.90
12166;DHT22;6146;48.128;11.476;2023-01-30T00:28:17;-3.10;99.90
12166;DHT22;6146;48.128;11.476;2023-01-30T00:30:42;-3.10;99.90
12166;DHT22;6146;48.128;11.476;2023-01-30T00:33:08;-3.10;99.90
12166;DHT22;6146;48.128;11.476;2023-01-30T00:35:34;-3.10;99.90
12166;DHT22;6146;48.128;11.476;2023-01-30T00:38:00;-3.20;99.90
12166;DHT22;6146;48.128;11.476;2023-01-30T00:40:27;-3.20;99.90
12166;DHT22;6146;48.128;11.476;2023-01-30T00:42:54;-3.20;99.90
12166;DHT22;6146;48.128;11.476;2023-01-30T00:45:59;-3.20;99.90
12166;DHT22;6146;48.128;11.476;2023-01-30T00:48:44;-3.20;99.90
12166;DHT22;6146;48.128;11.476;2023-01-30T00:51:09;-3.20;99.90
12166;DHT22;6146;48.128;11.476;2023-01-30T00:53:35;-3.20;99.90
12166;DHT22;6146;48.128;11.476;2023-01-30T00:56:01;-3.20;99.90
12166;DHT22;6146;48.128;11.476;2023-01-30T00:58:26;-3.20;99.90
12166;DHT22;6146;48.128;11.476;2023-01-30T01:00:52;-3.20;99.90
12166;DHT22;6146;48.128;11.476;2023-01-30T01:03:19;-3.20;99.90
12166;DHT22;6146;48.128;11.476;2023-01-30T01:05:45;-3.30;99.90
12166;DHT22;6146;48.128;11.476;2023-01-30T01:08:11;-3.30;99.90
12166;DHT22;6146;48.128;11.476;2023-01-30T01:10:37;-3.30;99.90
12166;DHT22;6146;48.128;11.476;2023-01-30T01:13:03;-3.20;99.90
12166;DHT22;6146;48.128;11.476;2023-01-30T01:15:28;-3.20;99.90
12166;DHT22;6146;48.128;11.476;2023-01-30T01:17:54;-3.20;99.90
12166;DHT22;6146;48.128;11.476;2023-01-30T01:20:21;-3.20;99.90
12166;DHT22;6146;48.128;11.476;2023-01-30T01:22:47;-3.20;99.90
12166;DHT22;6146;48.128;11.476;2023-01-30T01:25:17;-3.20;99.90
12166;DHT22;6146;48.128;11.476;2023-01-30T01:27:43;-3.20;99.90
12166;DHT22;6146;48.128;11.476;2023-01-30T01:30:09;-3.20;99.90
12166;DHT22;6146;48.128;11.476;2023-01-30T01:32:35;-3.20;99.90
12166;DHT22;6146;48.128;11.476;2023-01-30T01:35:01;-3.20;99.90
12166;DHT22;6146;48.128;11.476;2023-01-30T01:37:26;-3.20;99.90
12166;DHT22;6146;48.128;11.476;2023-01-30T01:39:52;-3.20;99.90
12166;DHT22;6146;48.128;11.476;2023-01-30T01:42:37;-3.20;99.90
12166;DHT22;6146;48.128;11.476;2023-01-30T01:50:15;-3.30;99.90
12166;DHT22;6146;48.128;11.476;2023-01-30T01:52:42;-3.30;99.90
12166;DHT22;6146;48.128;11.476;2023-01-30T01:55:08;-3.30;99.90
12166;DHT22;6146;48.128;11.476;2023-01-30T01:57:44;-3.30;99.90
12166;DHT22;6146;48.128;11.476;2023-01-30T02:00:15;-3.30;99.90
12166;DHT22;6146;48.128;11.476;2023-01-30T02:02:44;-3.30;99.90
12166;DHT22;6146;48.128;11.476;2023-01-30T02:05:14;-3.30;99.90
12166;DHT22;6146;48.128;11.476;2023-01-30T02:08:11;-3.30;99.90
12166;DHT22;6146;48.128;11.476;2023-01-30T02:10:58;-3.30;99.90
12166;DHT22;6146;48.128;11.476;2023-01-30T02:13:25;-3.30;99.90
12166;DHT22;6146;48.128;11.476;2023-01-30T02:15:51;-3.40;99.90
12166;DHT22;6146;48.128;11.476;2023-01-30T02:18:17;-3.40;99.90
12166;DHT22;6146;48.128;11.476;2023-01-30T02:21:13;-3.40;99.90
12166;DHT22;6146;48.128;11.476;2023-01-30T02:23:53;-3.40;99.90
12166;DHT22;6146;48.128;11.476;2023-01-30T02:32:26;-3.50;99.90
12166;DHT22;6146;48.128;11.476;2023-01-30T02:43:23;-3.50;99.90
12166;DHT22;6146;48.128;11.476;2023-01-30T02:46:14;-3.60;99.90
12166;DHT22;6146;48.128;11.476;2023-01-30T02:49:28;-3.60;99.90
12166;DHT22;6146;48.128;11.476;2023-01-30T02:51:34;-3.60;99.90
12166;DHT22;6146;48.128;11.476;2023-01-30T02:54:00;-3.60;99.90
12166;DHT22;6146;48.128;11.476;2023-01-30T02:56:26;-3.60;99.90
12166;DHT22;6146;48.128;11.476;2023-01-30T02:58:59;-3.60;99.90
12166;DHT22;6146;48.128;11.476;2023-01-30T03:10:08;-3.50;99.90
12166;DHT22;6146;48.128;11.476;2023-01-30T03:15:18;-3.50;99.90
12166;DHT22;6146;48.128;11.476;2023-01-30T03:17:46;-3.50;99.90
12166;DHT22;6146;48.128;11.476;2023-01-30T03:20:13;-3.50;99.90
12166;DHT22;6146;48.128;11.476;2023-01-30T03:22:40;-3.50;99.90
12166;DHT22;6146;48.128;11.476;2023-01-30T03:25:06;-3.50;99.90
12166;DHT22;6146;48.128;11.476;2023-01-30T03:27:33;-3.50;99.90
12166;DHT22;6146;48.128;11.476;2023-01-30T03:29:59;-3.50;99.90
12166;DHT22;6146;48.128;11.476;2023-01-30T03:32:25;-3.50;99.90
12166;DHT22;6146;48.128;11.476;2023-01-30T03:34:50;-3.40;99.90
12166;DHT22;6146;48.128;11.476;2023-01-30T03:37:16;-3.40;99.90
12166;DHT22;6146;48.128;11.476;2023-01-30T03:39:42;-3.40;99.90
12166;DHT22;6146;48.128;11.476;2023-01-30T03:42:07;-3.40;99.90
12166;DHT22;6146;48.128;11.476;2023-01-30T03:44:33;-3.40;99.90
12166;DHT22;6146;48.128;11.476;2023-01-30T03:46:58;-3.40;99.90
12166;DHT22;6146;48.128;11.476;2023-01-30T03:49:24;-3.40;99.90
12166;DHT22;6146;48.128;11.476;2023-01-30T03:51:50;-3.40;99.90
12166;DHT22;6146;48.128;11.476;2023-01-30T03:54:15;-3.40;99.90
12166;DHT22;6146;48.128;11.476;2023-01-30T03:56:41;-3.30;99.90
12166;DHT22;6146;48.128;11.476;2023-01-30T03:59:06;-3.30;99.90
12166;DHT22;6146;48.128;11.476;2023-01-30T04:01:32;-3.30;99.90
12166;DHT22;6146;48.128;11.476;2023-01-30T04:03:57;-3.30;99.90
12166;DHT22;6146;48.128;11.476;2023-01-30T04:06:23;-3.20;99.90
12166;DHT22;6146;48.128;11.476;2023-01-30T04:08:52;-3.20;99.90
12166;DHT22;6146;48.128;11.476;2023-01-30T04:11:17;-3.20;99.90
12166;DHT22;6146;48.128;11.476;2023-01-30T04:13:43;-3.10;99.90
12166;DHT22;6146;48.128;11.476;2023-01-30T04:16:20;-3.10;99.90
12166;DHT22;6146;48.128;11.476;2023-01-30T04:18:46;-2.50;99.90
12166;DHT22;6146;48.128;11.476;2023-01-30T04:21:12;-2.90;99.90
12166;DHT22;6146;48.128;11.476;2023-01-30T04:23:38;-2.80;99.90
12166;DHT22;6146;48.128;11.476;2023-01-30T04:26:05;-2.90;99.90
12166;DHT22;6146;48.128;11.476;2023-01-30T04:28:31;-2.80;99.90
12166;DHT22;6146;48.128;11.476;2023-01-30T04:30:56;-2.70;99.90
12166;DHT22;6146;48.128;11.476;2023-01-30T04:33:22;-2.60;99.90
12166;DHT22;6146;48.128;11.476;2023-01-30T04:35:54;-2.50;99.90
12166;DHT22;6146;48.128;11.476;2023-01-30T04:38:21;-2.50;99.90
12166;DHT22;6146;48.128;11.476;2023-01-30T04:40:48;-2.50;99.90
12166;DHT22;6146;48.128;11.476;2023-01-30T04:43:13;-2.40;99.90
12166;DHT22;6146;48.128;11.476;2023-01-30T04:45:45;-2.40;99.90
12166;DHT22;6146;48.128;11.476;2023-01-30T04:48:11;-2.40;99.90
12166;DHT22;6146;48.128;11.476;2023-01-30T04:50:38;-2.30;99.90
12166;DHT22;6146;48.128;11.476;2023-01-30T04:53:04;-2.30;99.90
12166;DHT22;6146;48.128;11.476;2023-01-30T04:55:30;-2.30;99.90
12166;DHT22;6146;48.128;11.476;2023-01-30T04:57:56;-2.30;99.90
12166;DHT22;6146;48.128;11.476;2023-01-30T05:00:22;-2.30;99.90
12166;DHT22;6146;48.128;11.476;2023-01-30T05:02:47;-2.20;99.90
12166;DHT22;6146;48.128;11.476;2023-01-30T05:05:13;-2.30;99.90
12166;DHT22;6146;48.128;11.476;2023-01-30T05:07:38;-2.20;99.90
12166;DHT22;6146;48.128;11.476;2023-01-30T05:10:04;-2.30;99.90
12166;DHT22;6146;48.128;11.476;2023-01-30T05:12:30;-2.30;99.90
12166;DHT22;6146;48.128;11.476;2023-01-30T05:14:55;-2.30;99.90
12166;DHT22;6146;48.128;11.476;2023-01-30T05:17:21;-2.30;99.90
12166;DHT22;6146;48.128;11.476;2023-01-30T05:19:47;-2.40;99.90
12166;DHT22;6146;48.128;11.476;2023-01-30T05:22:13;-2.40;99.90
12166;DHT22;6146;48.128;11.476;2023-01-30T05:24:38;-2.30;99.90
12166;DHT22;6146;48.128;11.476;2023-01-30T05:27:04;-2.30;99.90
12166;DHT22;6146;48.128;11.476;2023-01-30T05:29:29;-2.30;99.90
12166;DHT22;6146;48.128;11.476;2023-01-30T05:31:55;-2.30;99.90
12166;DHT22;6146;48.128;11.476;2023-01-30T05:34:20;-2.30;99.90
12166;DHT22;6146;48.128;11.476;2023-01-30T05:36:46;-2.30;99.90
12166;DHT22;6146;48.128;11.476;2023-01-30T05:39:12;-2.30;99.90
12166;DHT22;6146;48.128;11.476;2023-01-30T05:41:38;-2.30;99.90
12166;DHT22;6146;48.128;11.476;2023-01-30T05:44:04;-2.30;99.90
12166;DHT22;6146;48.128;11.476;2023-01-30T05:46:29;-2.40;99.90
12166;DHT22;6146;48.128;11.476;2023-01-30T05:48:55;-2.30;99.90
12166;DHT22;6146;48.128;11.476;2023-01-30T05:51:23;-2.40;99.90
12166;DHT22;6146;48.128;11.476;2023-01-30T05:53:49;-2.40;99.90
12166;DHT22;6146;48.128;11.476;2023-01-30T05:56:15;-2.40;99.90
12166;DHT22;6146;48.128;11.476;2023-01-30T05:58:41;-2.40;99.90
12166;DHT22;6146;48.128;11.476;2023-01-30T06:01:10;-2.40;99.90
12166;DHT22;6146;48.128;11.476;2023-01-30T06:03:36;-2.40;99.90
12166;DHT22;6146;48.128;11.476;2023-01-30T06:06:03;-2.40;99.90
12166;DHT22;6146;48.128;11.476;2023-01-30T06:08:29;-2.40;99.90
12166;DHT22;6146;48.128;11.476;2023-01-30T06:10:59;-2.40;99.90
12166;DHT22;6146;48.128;11.476;2023-01-30T06:13:25;-2.40;99.90
12166;DHT22;6146;48.128;11.476;2023-01-30T06:15:51;-2.40;99.90
12166;DHT22;6146;48.128;11.476;2023-01-30T06:18:17;-2.40;99.90
12166;DHT22;6146;48.128;11.476;2023-01-30T06:20:46;-2.20;99.90
12166;DHT22;6146;48.128;11.476;2023-01-30T06:23:13;-2.20;99.90
12166;DHT22;6146;48.128;11.476;2023-01-30T06:25:45;-2.10;99.90
12166;DHT22;6146;48.128;11.476;2023-01-30T06:28:11;-2.00;99.90
12166;DHT22;6146;48.128;11.476;2023-01-30T06:30:37;-1.90;99.90
12166;DHT22;6146;48.128;11.476;2023-01-30T06:33:03;-1.80;99.90
12166;DHT22;6146;48.128;11.476;2023-01-30T06:35:29;-1.80;99.90
12166;DHT22;6146;48.128;11.476;2023-01-30T06:37:54;-1.80;99.90
12166;DHT22;6146;48.128;11.476;2023-01-30T06:40:20;-1.80;99.90
12166;DHT22;6146;48.128;11.476;2023-01-30T06:42:46;-1.80;99.90
12166;DHT22;6146;48.128;11.476;2023-01-30T06:45:14;-1.80;99.90
12166;DHT22;6146;48.128;11.476;2023-01-30T06:47:51;-1.70;99.90
12166;DHT22;6146;48.128;11.476;2023-01-30T06:50:18;-1.70;99.90
12166;DHT22;6146;48.128;11.476;2023-01-30T06:52:46;-1.60;99.90
12166;DHT22;6146;48.128;11.476;2023-01-30T06:55:14;-1.60;99.90
12166;DHT22;6146;48.128;11.476;2023-01-30T06:57:40;-1.60;99.90
12166;DHT22;6146;48.128;11.476;2023-01-30T07:00:09;-1.60;99.90
12166;DHT22;6146;48.128;11.476;2023-01-30T07:02:35;-1.60;99.90
12166;DHT22;6146;48.128;11.476;2023-01-30T07:05:01;-1.60;99.90
12166;DHT22;6146;48.128;11.476;2023-01-30T07:07:28;-1.50;99.90
12166;DHT22;6146;48.128;11.476;2023-01-30T07:09:53;-1.50;99.90
12166;DHT22;6146;48.128;11.476;2023-01-30T07:12:19;-1.40;99.90
12166;DHT22;6146;48.128;11.476;2023-01-30T07:14:45;-1.20;99.90
12166;DHT22;6146;48.128;11.476;2023-01-30T07:17:10;-1.10;99.90
12166;DHT22;6146;48.128;11.476;2023-01-30T07:19:36;-1.00;99.90
12166;DHT22;6146;48.128;11.476;2023-01-30T07:22:03;-0.90;99.90
12166;DHT22;6146;48.128;11.476;2023-01-30T07:24:29;-0.80;99.90
12166;DHT22;6146;48.128;11.476;2023-01-30T07:26:55;-0.70;99.90
12166;DHT22;6146;48.128;11.476;2023-01-30T07:29:20;-0.60;99.90
12166;DHT22;6146;48.128;11.476;2023-01-30T07:31:46;-0.60;99.90
12166;DHT22;6146;48.128;11.476;2023-01-30T07:34:11;-0.60;99.90
12166;DHT22;6146;48.128;11.476;2023-01-30T07:36:37;-0.50;99.90
12166;DHT22;6146;48.128;11.476;2023-01-30T07:39:04;-0.50;99.90
12166;DHT22;6146;48.128;11.476;2023-01-30T07:41:29;-0.40;99.90
12166;DHT22;6146;48.128;11.476;2023-01-30T07:43:55;-0.20;99.90
12166;DHT22;6146;48.128;11.476;2023-01-30T07:46:21;0.10;99.90
12166;DHT22;6146;48.128;11.476;2023-01-30T07:48:46;0.60;99.90
12166;DHT22;6146;48.128;11.476;2023-01-30T07:51:12;1.00;99.90
12166;DHT22;6146;48.128;11.476;2023-01-30T07:53:38;0.90;99.90
12166;DHT22;6146;48.128;11.476;2023-01-30T07:56:11;0.80;99.90
12166;DHT22;6146;48.128;11.476;2023-01-30T07:58:38;0.60;99.90
12166;DHT22;6146;48.128;11.476;2023-01-30T08:01:04;0.70;99.90
12166;DHT22;6146;48.128;11.476;2023-01-30T08:03:30;0.80;99.90
12166;DHT22;6146;48.128;11.476;2023-01-30T08:05:56;0.80;99.90
12166;DHT22;6146;48.128;11.476;2023-01-30T08:08:21;0.90;99.90
12166;DHT22;6146;48.128;11.476;2023-01-30T08:10:50;1.00;99.90
12166;DHT22;6146;48.128;11.476;2023-01-30T08:13:16;1.00;99.90
12166;DHT22;6146;48.128;11.476;2023-01-30T08:15:41;1.10;99.90
12166;DHT22;6146;48.128;11.476;2023-01-30T08:18:07;1.10;99.90
12166;DHT22;6146;48.128;11.476;2023-01-30T08:20:32;1.40;99.90
12166;DHT22;6146;48.128;11.476;2023-01-30T08:22:59;1.70;99.90
12166;DHT22;6146;48.128;11.476;2023-01-30T08:25:27;2.90;99.90
12166;DHT22;6146;48.128;11.476;2023-01-30T08:27:52;4.30;99.90
12166;DHT22;6146;48.128;11.476;2023-01-30T08:30:19;5.30;99.90
12166;DHT22;6146;48.128;11.476;2023-01-30T08:32:44;5.70;99.90
12166;DHT22;6146;48.128;11.476;2023-01-30T08:35:10;6.30;99.90
12166;DHT22;6146;48.128;11.476;2023-01-30T08:37:40;5.50;99.90
12166;DHT22;6146;48.128;11.476;2023-01-30T08:40:08;4.70;99.90
12166;DHT22;6146;48.128;11.476;2023-01-30T08:42:34;4.80;99.90
12166;DHT22;6146;48.128;11.476;2023-01-30T08:45:00;5.10;99.90
12166;DHT22;6146;48.128;11.476;2023-01-30T08:47:25;4.70;99.90
12166;DHT22;6146;48.128;11.476;2023-01-30T08:49:51;5.00;99.90
12166;DHT22;6146;48.128;11.476;2023-01-30T08:52:20;5.70;99.90
12166;DHT22;6146;48.128;11.476;2023-01-30T08:54:46;6.00;99.90
12166;DHT22;6146;48.128;11.476;2023-01-30T08:57:13;6.70;99.90
12166;DHT22;6146;48.128;11.476;2023-01-30T08:59:39;7.40;99.90
12166;DHT22;6146;48.128;11.476;2023-01-30T09:02:05;7.50;99.20
12166;DHT22;6146;48.128;11.476;2023-01-30T09:04:31;7.30;98.70
12166;DHT22;6146;48.128;11.476;2023-01-30T09:06:57;6.50;99.90
12166;DHT22;6146;48.128;11.476;2023-01-30T09:09:23;6.70;99.80
12166;DHT22;6146;48.128;11.476;2023-01-30T09:11:48;7.30;98.70
12166;DHT22;6146;48.128;11.476;2023-01-30T09:14:15;7.60;98.10
12166;DHT22;6146;48.128;11.476;2023-01-30T09:16:45;8.30;96.50
12166;DHT22;6146;48.128;11.476;2023-01-30T09:19:10;8.60;94.20
12166;DHT22;6146;48.128;11.476;2023-01-30T09:21:36;7.60;95.30
12166;DHT22;6146;48.128;11.476;2023-01-30T09:24:03;8.10;95.40
12166;DHT22;6146;48.128;11.476;2023-01-30T09:26:29;9.00;93.50
12166;DHT22;6146;48.128;11.476;2023-01-30T09:28:54;9.30;92.20
12166;DHT22;6146;48.128;11.476;2023-01-30T09:31:20;9.50;90.90
12166;DHT22;6146;48.128;11.476;2023-01-30T09:33:45;9.10;91.20
12166;DHT22;6146;48.128;11.476;2023-01-30T09:36:11;9.20;91.20
12166;DHT22;6146;48.128;11.476;2023-01-30T09:38:37;9.20;90.40
12166;DHT22;6146;48.128;11.476;2023-01-30T09:52:58;8.30;88.70
12166;DHT22;6146;48.128;11.476;2023-01-30T09:55:28;7.40;90.90
12166;DHT22;6146;48.128;11.476;2023-01-30T09:57:56;7.60;91.60
12166;DHT22;6146;48.128;11.476;2023-01-30T10:00:36;7.30;91.50
12166;DHT22;6146;48.128;11.476;2023-01-30T10:03:10;6.90;92.30
12166;DHT22;6146;48.128;11.476;2023-01-30T10:19:24;6.30;98.30
12166;DHT22;6146;48.128;11.476;2023-01-30T10:22:07;7.30;95.50
12166;DHT22;6146;48.128;11.476;2023-01-30T10:25:05;7.60;95.50
12166;DHT22;6146;48.128;11.476;2023-01-30T10:27:35;8.40;94.10
12166;DHT22;6146;48.128;11.476;2023-01-30T10:30:03;7.90;93.10
12166;DHT22;6146;48.128;11.476;2023-01-30T10:32:52;9.60;92.90
12166;DHT22;6146;48.128;11.476;2023-01-30T10:35:24;10.20;91.40
12166;DHT22;6146;48.128;11.476;2023-01-30T10:38:26;10.40;90.20
12166;DHT22;6146;48.128;11.476;2023-01-30T10:43:45;9.00;93.00
12166;DHT22;6146;48.128;11.476;2023-01-30T10:46:46;9.40;92.60
12166;DHT22;6146;48.128;11.476;2023-01-30T10:49:35;10.20;91.10
12166;DHT22;6146;48.128;11.476;2023-01-30T10:52:21;10.30;91.00
12166;DHT22;6146;48.128;11.476;2023-01-30T10:57:56;8.30;93.90
12166;DHT22;6146;48.128;11.476;2023-01-30T11:05:39;9.30;93.30
12166;DHT22;6146;48.128;11.476;2023-01-30T11:08:19;8.60;94.00
12166;DHT22;6146;48.128;11.476;2023-01-30T11:10:45;8.90;94.20
12166;DHT22;6146;48.128;11.476;2023-01-30T11:13:19;8.10;94.90
12166;DHT22;6146;48.128;11.476;2023-01-30T11:15:49;7.20;96.30
12166;DHT22;6146;48.128;11.476;2023-01-30T11:18:16;6.50;97.90
12166;DHT22;6146;48.128;11.476;2023-01-30T11:20:44;6.10;98.80
12166;DHT22;6146;48.128;11.476;2023-01-30T11:23:25;5.90;99.70
12166;DHT22;6146;48.128;11.476;2023-01-30T11:25:55;5.70;99.90
12166;DHT22;6146;48.128;11.476;2023-01-30T11:28:22;5.50;99.90
12166;DHT22;6146;48.128;11.476;2023-01-30T11:30:59;6.00;99.90
12166;DHT22;6146;48.128;11.476;2023-01-30T11:33:33;6.70;99.90
12166;DHT22;6146;48.128;11.476;2023-01-30T11:36:28;7.60;99.00
12166;DHT22;6146;48.128;11.476;2023-01-30T11:39:02;8.10;97.60
12166;DHT22;6146;48.128;11.476;2023-01-30T11:41:29;8.60;97.20
12166;DHT22;6146;48.128;11.476;2023-01-30T11:44:03;10.30;95.00
12166;DHT22;6146;48.128;11.476;2023-01-30T11:46:41;9.00;95.00
12166;DHT22;6146;48.128;11.476;2023-01-30T11:49:13;7.70;96.90
12166;DHT22;6146;48.128;11.476;2023-01-30T11:51:42;7.20;98.70
12166;DHT22;6146;48.128;11.476;2023-01-30T11:54:21;7.00;99.10
12166;DHT22;6146;48.128;11.476;2023-01-30T11:56:56;6.60;99.90
12166;DHT22;6146;48.128;11.476;2023-01-30T11:59:26;5.90;99.90
12166;DHT22;6146;48.128;11.476;2023-01-30T12:02:11;5.70;99.90
12166;DHT22;6146;48.128;11.476;2023-01-30T12:04:43;5.10;99.90
12166;DHT22;6146;48.128;11.476;2023-01-30T12:07:23;4.70;99.90
12166;DHT22;6146;48.128;11.476;2023-01-30T12:09:50;4.50;99.90
12166;DHT22;6146;48.128;11.476;2023-01-30T12:12:42;4.50;99.90
12166;DHT22;6146;48.128;11.476;2023-01-30T12:15:24;4.30;99.90
12166;DHT22;6146;48.128;11.476;2023-01-30T12:18:28;4.10;99.90
12166;DHT22;6146;48.128;11.476;2023-01-30T12:21:02;4.10;99.90
12166;DHT22;6146;48.128;11.476;2023-01-30T12:26:26;3.90;99.90
12166;DHT22;6146;48.128;11.476;2023-01-30T12:29:06;3.90;99.90
12166;DHT22;6146;48.128;11.476;2023-01-30T12:31:53;3.90;99.90
12166;DHT22;6146;48.128;11.476;2023-01-30T12:34:24;4.00;99.90
12166;DHT22;6146;48.128;11.476;2023-01-30T12:42:05;4.00;99.90
12166;DHT22;6146;48.128;11.476;2023-01-30T12:50:37;4.00;99.90
12166;DHT22;6146;48.128;11.476;2023-01-30T12:59:05;4.40;99.90
12166;DHT22;6146;48.128;11.476;2023-01-30T13:02:00;4.50;99.90
12166;DHT22;6146;48.128;11.476;2023-01-30T13:04:52;4.40;99.90
12166;DHT22;6146;48.128;11.476;2023-01-30T13:13:40;4.40;99.90
12166;DHT22;6146;48.128;11.476;2023-01-30T13:16:34;4.50;99.90
12166;DHT22;6146;48.128;11.476;2023-01-30T13:19:36;4.70;99.90
12166;DHT22;6146;48.128;11.476;2023-01-30T13:25:29;4.80;99.90
12166;DHT22;6146;48.128;11.476;2023-01-30T13:28:02;4.80;99.90
12166;DHT22;6146;48.128;11.476;2023-01-30T13:30:31;4.80;99.90
12166;DHT22;6146;48.128;11.476;2023-01-30T13:33:19;4.80;99.90
12166;DHT22;6146;48.128;11.476;2023-01-30T13:36:13;4.80;99.90
12166;DHT22;6146;48.128;11.476;2023-01-30T13:39:05;5.00;99.90
12166;DHT22;6146;48.128;11.476;2023-01-30T13:41:41;4.90;99.90
12166;DHT22;6146;48.128;11.476;2023-01-30T13:44:22;4.70;99.90
12166;DHT22;6146;48.128;11.476;2023-01-30T13:46:51;4.80;99.90
12166;DHT22;6146;48.128;11.476;2023-01-30T13:49:28;4.80;99.90
12166;DHT22;6146;48.128;11.476;2023-01-30T13:52:45;4.70;99.90
12166;DHT22;6146;48.128;11.476;2023-01-30T13:55:15;4.50;99.90
12166;DHT22;6146;48.128;11.476;2023-01-30T13:57:53;4.50;99.90
12166;DHT22;6146;48.128;11.476;2023-01-30T14:00:27;4.40;99.90
12166;DHT22;6146;48.128;11.476;2023-01-30T14:08:18;4.30;99.90
12166;DHT22;6146;48.128;11.476;2023-01-30T14:10:45;4.30;99.90
12166;DHT22;6146;48.128;11.476;2023-01-30T14:13:13;4.30;99.90
12166;DHT22;6146;48.128;11.476;2023-01-30T14:15:40;4.30;99.90
12166;DHT22;6146;48.128;11.476;2023-01-30T14:18:27;4.30;99.90
12166;DHT22;6146;48.128;11.476;2023-01-30T14:21:17;4.30;99.90
12166;DHT22;6146;48.128;11.476;2023-01-30T14:24:00;4.30;99.90
12166;DHT22;6146;48.128;11.476;2023-01-30T14:39:55;4.10;99.90
12166;DHT22;6146;48.128;11.476;2023-01-30T14:42:22;4.00;99.90
12166;DHT22;6146;48.128;11.476;2023-01-30T14:45:14;4.00;99.90
12166;DHT22;6146;48.128;11.476;2023-01-30T14:47:40;3.90;99.90
12166;DHT22;6146;48.128;11.476;2023-01-30T14:50:33;3.90;99.90
12166;DHT22;6146;48.128;11.476;2023-01-30T14:52:58;3.80;99.90
12166;DHT22;6146;48.128;11.476;2023-01-30T14:55:26;3.80;99.90
12166;DHT22;6146;48.128;11.476;2023-01-30T14:57:58;3.80;99.90
12166;DHT22;6146;48.128;11.476;2023-01-30T15:00:28;3.80;99.90
12166;DHT22;6146;48.128;11.476;2023-01-30T15:02:59;3.70;99.90
12166;DHT22;6146;48.128;11.476;2023-01-30T15:05:27;3.70;99.90
12166;DHT22;6146;48.128;11.476;2023-01-30T15:08:05;3.80;99.90
12166;DHT22;6146;48.128;11.476;2023-01-30T15:22:30;3.60;99.90
12166;DHT22;6146;48.128;11.476;2023-01-30T15:25:09;3.60;99.90
12166;DHT22;6146;48.128;11.476;2023-01-30T15:30:46;3.50;99.90
12166;DHT22;6146;48.128;11.476;2023-01-30T15:33:22;3.40;99.90
12166;DHT22;6146;48.128;11.476;2023-01-30T15:35:48;3.30;99.90
12166;DHT22;6146;48.128;11.476;2023-01-30T15:38:29;3.30;99.90
12166;DHT22;6146;48.128;11.476;2023-01-30T15:40:58;3.40;99.90
12166;DHT22;6146;48.128;11.476;2023-01-30T15:43:50;3.40;99.90
12166;DHT22;6146;48.128;11.476;2023-01-30T15:46:39;3.30;99.90
12166;DHT22;6146;48.128;11.476;2023-01-30T15:52:18;3.30;99.90
12166;DHT22;6146;48.128;11.476;2023-01-30T15:54:51;3.30;99.90
12166;DHT22;6146;48.128;11.476;2023-01-30T15:57:35;3.30;99.90
12166;DHT22;6146;48.128;11.476;2023-01-30T16:00:05;3.30;99.90
12166;DHT22;6146;48.128;11.476;2023-01-30T16:02:50;3.20;99.90
12166;DHT22;6146;48.128;11.476;2023-01-30T16:05:19;3.30;99.90
12166;DHT22;6146;48.128;11.476;2023-01-30T16:07:47;3.20;99.90
12166;DHT22;6146;48.128;11.476;2023-01-30T16:10:18;3.10;99.90
12166;DHT22;6146;48.128;11.476;2023-01-30T16:12:44;3.20;99.90
12166;DHT22;6146;48.128;11.476;2023-01-30T16:15:38;3.10;99.90
12166;DHT22;6146;48.128;11.476;2023-01-30T16:21:08;3.00;99.90
12166;DHT22;6146;48.128;11.476;2023-01-30T16:23:40;3.00;99.90
12166;DHT22;6146;48.128;11.476;2023-01-30T16:26:11;3.00;99.90
12166;DHT22;6146;48.128;11.476;2023-01-30T16:28:38;3.00;99.90
12166;DHT22;6146;48.128;11.476;2023-01-30T16:31:07;3.00;99.90
12166;DHT22;6146;48.128;11.476;2023-01-30T16:33:33;2.90;99.90
12166;DHT22;6146;48.128;11.476;2023-01-30T16:36:27;2.80;99.90
12166;DHT22;6146;48.128;11.476;2023-01-30T16:38:54;2.70;99.90
12166;DHT22;6146;48.128;11.476;2023-01-30T16:49:17;2.60;99.90
12166;DHT22;6146;48.128;11.476;2023-01-30T16:51:45;2.50;99.90
12166;DHT22;6146;48.128;11.476;2023-01-30T16:54:21;2.50;99.90
12166;DHT22;6146;48.128;11.476;2023-01-30T16:56:50;2.40;99.90
12166;DHT22;6146;48.128;11.476;2023-01-30T16:59:20;2.40;99.90
12166;DHT22;6146;48.128;11.476;2023-01-30T17:01:46;2.50;99.90
12166;DHT22;6146;48.128;11.476;2023-01-30T17:04:19;2.30;99.90
12166;DHT22;6146;48.128;11.476;2023-01-30T17:06:58;2.30;99.90
12166;DHT22;6146;48.128;11.476;2023-01-30T17:09:45;2.30;99.90
12166;DHT22;6146;48.128;11.476;2023-01-30T17:17:39;2.10;99.90
12166;DHT22;6146;48.128;11.476;2023-01-30T17:20:06;2.10;99.90
12166;DHT22;6146;48.128;11.476;2023-01-30T17:22:32;2.10;99.90
12166;DHT22;6146;48.128;11.476;2023-01-30T17:25:01;2.10;99.90
12166;DHT22;6146;48.128;11.476;2023-01-30T17:27:28;2.20;99.90
12166;DHT22;6146;48.128;11.476;2023-01-30T17:29:54;2.20;99.90
12166;DHT22;6146;48.128;11.476;2023-01-30T17:32:20;2.30;99.90
12166;DHT22;6146;48.128;11.476;2023-01-30T17:34:46;2.30;99.90
12166;DHT22;6146;48.128;11.476;2023-01-30T17:37:19;2.40;99.90
12166;DHT22;6146;48.128;11.476;2023-01-30T17:39:46;2.50;99.90
12166;DHT22;6146;48.128;11.476;2023-01-30T17:42:12;2.50;99.90
12166;DHT22;6146;48.128;11.476;2023-01-30T17:44:38;2.60;99.90
12166;DHT22;6146;48.128;11.476;2023-01-30T17:47:04;2.60;99.90
12166;DHT22;6146;48.128;11.476;2023-01-30T17:49:30;2.60;99.90
12166;DHT22;6146;48.128;11.476;2023-01-30T17:51:56;2.60;99.90
12166;DHT22;6146;48.128;11.476;2023-01-30T17:54:24;2.60;99.90
12166;DHT22;6146;48.128;11.476;2023-01-30T17:57:02;2.60;99.90
12166;DHT22;6146;48.128;11.476;2023-01-30T17:59:28;2.50;99.90
12166;DHT22;6146;48.128;11.476;2023-01-30T18:01:54;2.50;99.90
12166;DHT22;6146;48.128;11.476;2023-01-30T18:04:20;2.50;99.90
12166;DHT22;6146;48.128;11.476;2023-01-30T18:06:48;2.50;99.90
12166;DHT22;6146;48.128;11.476;2023-01-30T18:09:17;2.50;99.90
12166;DHT22;6146;48.128;11.476;2023-01-30T18:11:44;2.50;99.90
12166;DHT22;6146;48.128;11.476;2023-01-30T18:14:10;2.50;99.90
12166;DHT22;6146;48.128;11.476;2023-01-30T18:16:35;2.60;99.90
12166;DHT22;6146;48.128;11.476;2023-01-30T18:19:03;2.60;99.90
12166;DHT22;6146;48.128;11.476;2023-01-30T18:21:35;2.60;99.90
12166;DHT22;6146;48.128;11.476;2023-01-30T18:24:02;2.60;99.90
12166;DHT22;6146;48.128;11.476;2023-01-30T18:26:29;2.60;99.90
12166;DHT22;6146;48.128;11.476;2023-01-30T18:28:55;2.50;99.90
12166;DHT22;6146;48.128;11.476;2023-01-30T18:31:20;2.50;99.90